sensor_id;sensor_type;location;lat;lon;timestamp;temperature;humidity
15450;DHT22;7826;49.784;9.934;2024-02-21T00:01:25;7.70;99.90
15450;DHT22;7826;49.784;9.934;2024-02-21T00:03:51;7.50;99.90
15450;DHT22;7826;49.784;9.934;2024-02-21T00:06:18;7.60;99.90
15450;DHT22;7826;49.784;9.934;2024-02-21T00:08:44;7.50;99.90
15450;DHT22;7826;49.784;9.934;2024-02-21T00:11:11;7.50;99.90
15450;DHT22;7826;49.784;9.934;2024-02-21T00:13:37;7.50;99.90
15450;DHT22;7826;49.784;9.934;2024-02-21T00:16:04;7.50;99.90
15450;DHT22;7826;49.784;9.934;2024-02-21T00:18:31;7.50;99.90
15450;DHT22;7826;49.784;9.934;2024-02-21T00:20:57;7.50;99.90
15450;DHT22;7826;49.784;9.934;2024-02-21T00:23:23;7.50;99.90
15450;DHT22;7826;49.784;9.934;2024-02-21T00:25:50;7.50;99.90
15450;DHT22;7826;49.784;9.934;2024-02-21T00:28:16;7.50;99.90
15450;DHT22;7826;49.784;9.934;2024-02-21T00:30:42;7.50;99.90
15450;DHT22;7826;49.784;9.934;2024-02-21T00:33:09;7.40;99.90
15450;DHT22;7826;49.784;9.934;2024-02-21T00:35:35;7.40;99.90
15450;DHT22;7826;49.784;9.934;2024-02-21T00:38:02;7.40;99.90
15450;DHT22;7826;49.784;9.934;2024-02-21T00:40:29;7.40;99.90
15450;DHT22;7826;49.784;9.934;2024-02-21T00:42:55;7.40;99.90
15450;DHT22;7826;49.784;9.934;2024-02-21T00:45:21;7.30;99.90
15450;DHT22;7826;49.784;9.934;2024-02-21T00:47:47;7.40;99.90
15450;DHT22;7826;49.784;9.934;2024-02-21T00:50:14;7.30;99.90
15450;DHT22;7826;49.784;9.934;2024-02-21T00:52:40;7.30;99.90
15450;DHT22;7826;49.784;9.934;2024-02-21T00:55:06;7.30;99.90
15450;DHT22;7826;49.784;9.934;2024-02-21T00:57:33;7.30;99.90
15450;DHT22;7826;49.784;9.934;2024-02-21T00:59:59;7.30;99.90
15450;DHT22;7826;49.784;9.934;2024-02-21T01:02:26;7.40;99.90
15450;DHT22;7826;49.784;9.934;2024-02-21T01:04:53;7.30;99.90
15450;DHT22;7826;49.784;9.934;2024-02-21T01:07:19;7.30;99.90
15450;DHT22;7826;49.784;9.934;2024-02-21T01:09:45;7.30;99.90
15450;DHT22;7826;49.784;9.934;2024-02-21T01:12:11;7.30;99.90
15450;DHT22;7826;49.784;9.934;2024-02-21T01:14:38;7.30;99.90
15450;DHT22;7826;49.784;9.934;2024-02-21T01:17:04;7.20;99.90
15450;DHT22;7826;49.784;9.934;2024-02-21T01:19:32;7.30;99.90
15450;DHT22;7826;49.784;9.934;2024-02-21T01:21:59;7.30;99.90
15450;DHT22;7826;49.784;9.934;2024-02-21T01:24:25;7.30;99.90
15450;DHT22;7826;49.784;9.934;2024-02-21T01:26:52;7.40;99.90
15450;DHT22;7826;49.784;9.934;2024-02-21T01:29:18;7.40;99.90
15450;DHT22;7826;49.784;9.934;2024-02-21T01:31:45;7.50;99.90
15450;DHT22;7826;49.784;9.934;2024-02-21T01:34:11;7.50;99.90
15450;DHT22;7826;49.784;9.934;2024-02-21T01:36:38;7.50;99.90
15450;DHT22;7826;49.784;9.934;2024-02-21T01:39:05;7.40;99.90
15450;DHT22;7826;49.784;9.934;2024-02-21T01:41:31;7.40;99.90
15450;DHT22;7826;49.784;9.934;2024-02-21T01:43:58;7.40;99.90
15450;DHT22;7826;49.784;9.934;2024-02-21T01:46:24;7.40;99.90
15450;DHT22;7826;49.784;9.934;2024-02-21T01:48:55;7.40;99.90
15450;DHT22;7826;49.784;9.934;2024-02-21T01:51:21;7.40;99.90
15450;DHT22;7826;49.784;9.934;2024-02-21T01:53:50;7.40;99.90
15450;DHT22;7826;49.784;9.934;2024-02-21T01:56:17;7.50;99.90
15450;DHT22;7826;49.784;9.934;2024-02-21T01:58:44;7.40;99.90
15450;DHT22;7826;49.784;9.934;2024-02-21T02:01:12;7.50;99.90
15450;DHT22;7826;49.784;9.934;2024-02-21T02:03:38;7.50;99.90
15450;DHT22;7826;49.784;9.934;2024-02-21T02:06:05;7.50;99.90
15450;DHT22;7826;49.784;9.934;2024-02-21T02:08:35;7.50;99.90
15450;DHT22;7826;49.784;9.934;2024-02-21T02:11:02;7.40;99.90
15450;DHT22;7826;49.784;9.934;2024-02-21T02:13:28;7.50;99.90
15450;DHT22;7826;49.784;9.934;2024-02-21T02:15:55;7.50;99.90
15450;DHT22;7826;49.784;9.934;2024-02-21T02:18:21;7.50;99.90
15450;DHT22;7826;49.784;9.934;2024-02-21T02:20:49;7.40;99.90
15450;DHT22;7826;49.784;9.934;2024-02-21T02:25:53;7.30;99.90
15450;DHT22;7826;49.784;9.934;2024-02-21T02:28:20;7.20;99.90
15450;DHT22;7826;49.784;9.934;2024-02-21T02:30:47;7.20;99.90
15450;DHT22;7826;49.784;9.934;2024-02-21T02:33:14;7.20;99.90
15450;DHT22;7826;49.784;9.934;2024-02-21T02:35:40;7.20;99.90
15450;DHT22;7826;49.784;9.934;2024-02-21T02:38:06;7.10;99.90
15450;DHT22;7826;49.784;9.934;2024-02-21T02:40:33;7.10;99.90
15450;DHT22;7826;49.784;9.934;2024-02-21T02:43:00;7.00;99.90
15450;DHT22;7826;49.784;9.934;2024-02-21T02:45:26;7.00;99.90
15450;DHT22;7826;49.784;9.934;2024-02-21T02:47:53;7.00;99.90
15450;DHT22;7826;49.784;9.934;2024-02-21T02:50:23;7.00;99.90
15450;DHT22;7826;49.784;9.934;2024-02-21T02:52:49;6.90;99.90
15450;DHT22;7826;49.784;9.934;2024-02-21T02:55:16;6.90;99.90
15450;DHT22;7826;49.784;9.934;2024-02-21T02:57:42;6.90;99.90
15450;DHT22;7826;49.784;9.934;2024-02-21T03:00:12;6.90;99.90
15450;DHT22;7826;49.784;9.934;2024-02-21T03:02:39;6.90;99.90
15450;DHT22;7826;49.784;9.934;2024-02-21T03:07:42;6.90;99.90
15450;DHT22;7826;49.784;9.934;2024-02-21T03:10:09;6.90;99.90
15450;DHT22;7826;49.784;9.934;2024-02-21T03:12:37;6.80;99.90
15450;DHT22;7826;49.784;9.934;2024-02-21T03:15:04;6.80;99.90
15450;DHT22;7826;49.784;9.934;2024-02-21T03:17:31;6.90;99.90
15450;DHT22;7826;49.784;9.934;2024-02-21T03:19:58;6.90;99.90
15450;DHT22;7826;49.784;9.934;2024-02-21T03:22:31;6.90;99.90
15450;DHT22;7826;49.784;9.934;2024-02-21T03:24:57;6.90;99.90
15450;DHT22;7826;49.784;9.934;2024-02-21T03:27:23;6.80;99.90
15450;DHT22;7826;49.784;9.934;2024-02-21T03:29:49;6.80;99.90
15450;DHT22;7826;49.784;9.934;2024-02-21T03:32:15;6.90;99.90
15450;DHT22;7826;49.784;9.934;2024-02-21T03:34:41;6.80;99.90
15450;DHT22;7826;49.784;9.934;2024-02-21T03:37:07;6.80;99.90
15450;DHT22;7826;49.784;9.934;2024-02-21T03:39:34;6.80;99.90
15450;DHT22;7826;49.784;9.934;2024-02-21T03:42:00;6.70;99.90
15450;DHT22;7826;49.784;9.934;2024-02-21T03:44:31;6.80;99.90
15450;DHT22;7826;49.784;9.934;2024-02-21T03:46:59;6.80;99.90
15450;DHT22;7826;49.784;9.934;2024-02-21T03:49:26;6.80;99.90
15450;DHT22;7826;49.784;9.934;2024-02-21T03:51:54;6.80;99.90
15450;DHT22;7826;49.784;9.934;2024-02-21T03:54:21;6.70;99.90
15450;DHT22;7826;49.784;9.934;2024-02-21T03:56:47;6.80;99.90
15450;DHT22;7826;49.784;9.934;2024-02-21T03:59:15;6.80;99.90
15450;DHT22;7826;49.784;9.934;2024-02-21T04:01:42;6.80;99.90
15450;DHT22;7826;49.784;9.934;2024-02-21T04:04:09;6.80;99.90
15450;DHT22;7826;49.784;9.934;2024-02-21T04:06:35;6.70;99.90
15450;DHT22;7826;49.784;9.934;2024-02-21T04:09:01;6.80;99.90
15450;DHT22;7826;49.784;9.934;2024-02-21T04:11:28;6.70;99.90
15450;DHT22;7826;49.784;9.934;2024-02-21T04:13:54;6.70;99.90
15450;DHT22;7826;49.784;9.934;2024-02-21T04:16:21;6.60;99.90
15450;DHT22;7826;49.784;9.934;2024-02-21T04:18:47;6.70;99.90
15450;DHT22;7826;49.784;9.934;2024-02-21T04:21:14;6.70;99.90
15450;DHT22;7826;49.784;9.934;2024-02-21T04:23:42;6.70;99.90
15450;DHT22;7826;49.784;9.934;2024-02-21T04:26:08;6.70;99.90
15450;DHT22;7826;49.784;9.934;2024-02-21T04:28:34;6.70;99.90
15450;DHT22;7826;49.784;9.934;2024-02-21T04:31:00;6.70;99.90
15450;DHT22;7826;49.784;9.934;2024-02-21T04:33:27;6.70;99.90
15450;DHT22;7826;49.784;9.934;2024-02-21T04:35:53;6.70;99.90
15450;DHT22;7826;49.784;9.934;2024-02-21T04:38:21;6.70;99.90
15450;DHT22;7826;49.784;9.934;2024-02-21T04:40:47;6.70;99.90
15450;DHT22;7826;49.784;9.934;2024-02-21T04:43:13;6.70;99.90
15450;DHT22;7826;49.784;9.934;2024-02-21T04:45:39;6.80;99.90
15450;DHT22;7826;49.784;9.934;2024-02-21T04:48:06;6.70;99.90
15450;DHT22;7826;49.784;9.934;2024-02-21T04:50:32;6.70;99.90
15450;DHT22;7826;49.784;9.934;2024-02-21T04:52:58;6.60;99.90
15450;DHT22;7826;49.784;9.934;2024-02-21T04:55:25;6.70;99.90
15450;DHT22;7826;49.784;9.934;2024-02-21T04:57:51;6.70;99.90
15450;DHT22;7826;49.784;9.934;2024-02-21T05:00:18;6.60;99.90
15450;DHT22;7826;49.784;9.934;2024-02-21T05:02:44;6.60;99.90
15450;DHT22;7826;49.784;9.934;2024-02-21T05:05:10;6.60;99.90
15450;DHT22;7826;49.784;9.934;2024-02-21T05:07:36;6.60;99.90
15450;DHT22;7826;49.784;9.934;2024-02-21T05:10:02;6.60;99.90
15450;DHT22;7826;49.784;9.934;2024-02-21T05:12:29;6.60;99.90
15450;DHT22;7826;49.784;9.934;2024-02-21T05:14:56;6.70;99.90
15450;DHT22;7826;49.784;9.934;2024-02-21T05:17:22;6.70;99.90
15450;DHT22;7826;49.784;9.934;2024-02-21T05:19:50;6.70;99.90
15450;DHT22;7826;49.784;9.934;2024-02-21T05:22:16;6.70;99.90
15450;DHT22;7826;49.784;9.934;2024-02-21T05:24:43;6.70;99.90
15450;DHT22;7826;49.784;9.934;2024-02-21T05:27:10;6.80;99.90
15450;DHT22;7826;49.784;9.934;2024-02-21T05:29:36;6.70;99.90
15450;DHT22;7826;49.784;9.934;2024-02-21T05:32:03;6.70;99.90
15450;DHT22;7826;49.784;9.934;2024-02-21T05:34:30;6.80;99.90
15450;DHT22;7826;49.784;9.934;2024-02-21T05:36:56;6.70;99.90
15450;DHT22;7826;49.784;9.934;2024-02-21T05:39:23;6.70;99.90
15450;DHT22;7826;49.784;9.934;2024-02-21T05:41:49;6.70;99.90
15450;DHT22;7826;49.784;9.934;2024-02-21T05:44:16;6.70;99.90
15450;DHT22;7826;49.784;9.934;2024-02-21T05:46:43;6.70;99.90
15450;DHT22;7826;49.784;9.934;2024-02-21T05:49:09;6.70;99.90
15450;DHT22;7826;49.784;9.934;2024-02-21T05:51:35;6.80;99.90
15450;DHT22;7826;49.784;9.934;2024-02-21T05:54:01;6.80;99.90
15450;DHT22;7826;49.784;9.934;2024-02-21T05:56:28;6.80;99.90
15450;DHT22;7826;49.784;9.934;2024-02-21T05:58:54;6.90;99.90
15450;DHT22;7826;49.784;9.934;2024-02-21T06:01:20;6.90;99.90
15450;DHT22;7826;49.784;9.934;2024-02-21T06:03:50;6.90;99.90
15450;DHT22;7826;49.784;9.934;2024-02-21T06:06:16;6.80;99.90
15450;DHT22;7826;49.784;9.934;2024-02-21T06:08:42;6.90;99.90
15450;DHT22;7826;49.784;9.934;2024-02-21T06:11:09;6.90;99.90
15450;DHT22;7826;49.784;9.934;2024-02-21T06:13:38;6.90;99.90
15450;DHT22;7826;49.784;9.934;2024-02-21T06:16:06;6.90;99.90
15450;DHT22;7826;49.784;9.934;2024-02-21T06:18:35;6.90;99.90
15450;DHT22;7826;49.784;9.934;2024-02-21T06:21:01;7.00;99.90
15450;DHT22;7826;49.784;9.934;2024-02-21T06:23:28;7.00;99.90
15450;DHT22;7826;49.784;9.934;2024-02-21T06:25:54;7.00;99.90
15450;DHT22;7826;49.784;9.934;2024-02-21T06:28:20;7.00;99.90
15450;DHT22;7826;49.784;9.934;2024-02-21T06:30:46;7.00;99.90
15450;DHT22;7826;49.784;9.934;2024-02-21T06:33:14;7.00;99.90
15450;DHT22;7826;49.784;9.934;2024-02-21T06:35:40;7.00;99.90
15450;DHT22;7826;49.784;9.934;2024-02-21T06:38:09;7.00;99.90
15450;DHT22;7826;49.784;9.934;2024-02-21T06:40:35;7.00;99.90
15450;DHT22;7826;49.784;9.934;2024-02-21T06:43:05;7.00;99.90
15450;DHT22;7826;49.784;9.934;2024-02-21T06:45:31;7.00;99.90
15450;DHT22;7826;49.784;9.934;2024-02-21T06:47:58;7.00;99.90
15450;DHT22;7826;49.784;9.934;2024-02-21T06:50:25;7.00;99.90
15450;DHT22;7826;49.784;9.934;2024-02-21T06:52:51;7.00;99.90
15450;DHT22;7826;49.784;9.934;2024-02-21T06:55:17;7.00;99.90
15450;DHT22;7826;49.784;9.934;2024-02-21T06:57:44;7.00;99.90
15450;DHT22;7826;49.784;9.934;2024-02-21T07:00:10;7.00;99.90
15450;DHT22;7826;49.784;9.934;2024-02-21T07:02:37;7.00;99.90
15450;DHT22;7826;49.784;9.934;2024-02-21T07:05:07;7.00;99.90
15450;DHT22;7826;49.784;9.934;2024-02-21T07:07:34;7.00;99.90
15450;DHT22;7826;49.784;9.934;2024-02-21T07:10:01;6.90;99.90
15450;DHT22;7826;49.784;9.934;2024-02-21T07:12:28;7.00;99.90
15450;DHT22;7826;49.784;9.934;2024-02-21T07:14:54;7.00;99.90
15450;DHT22;7826;49.784;9.934;2024-02-21T07:17:21;7.00;99.90
15450;DHT22;7826;49.784;9.934;2024-02-21T07:19:47;7.00;99.90
15450;DHT22;7826;49.784;9.934;2024-02-21T07:22:13;7.00;99.90
15450;DHT22;7826;49.784;9.934;2024-02-21T07:24:39;7.00;99.90
15450;DHT22;7826;49.784;9.934;2024-02-21T07:27:07;7.10;99.90
15450;DHT22;7826;49.784;9.934;2024-02-21T07:29:33;7.10;99.90
15450;DHT22;7826;49.784;9.934;2024-02-21T07:31:59;7.10;99.90
15450;DHT22;7826;49.784;9.934;2024-02-21T07:34:25;7.10;99.90
15450;DHT22;7826;49.784;9.934;2024-02-21T07:36:51;7.10;99.90
15450;DHT22;7826;49.784;9.934;2024-02-21T07:39:18;7.10;99.90
15450;DHT22;7826;49.784;9.934;2024-02-21T07:41:44;7.10;99.90
15450;DHT22;7826;49.784;9.934;2024-02-21T07:44:12;7.10;99.90
15450;DHT22;7826;49.784;9.934;2024-02-21T07:46:39;7.20;99.90
15450;DHT22;7826;49.784;9.934;2024-02-21T07:49:05;7.20;99.90
15450;DHT22;7826;49.784;9.934;2024-02-21T07:51:31;7.20;99.90
15450;DHT22;7826;49.784;9.934;2024-02-21T07:53:57;7.20;99.90
15450;DHT22;7826;49.784;9.934;2024-02-21T07:56:27;7.30;99.90
15450;DHT22;7826;49.784;9.934;2024-02-21T07:58:54;7.30;99.90
15450;DHT22;7826;49.784;9.934;2024-02-21T08:01:20;7.30;99.90
15450;DHT22;7826;49.784;9.934;2024-02-21T08:03:47;7.30;99.90
15450;DHT22;7826;49.784;9.934;2024-02-21T08:06:14;7.30;99.90
15450;DHT22;7826;49.784;9.934;2024-02-21T08:08:42;7.40;99.90
15450;DHT22;7826;49.784;9.934;2024-02-21T08:11:08;7.40;99.90
15450;DHT22;7826;49.784;9.934;2024-02-21T08:13:34;7.40;99.90
15450;DHT22;7826;49.784;9.934;2024-02-21T08:16:00;7.50;99.90
15450;DHT22;7826;49.784;9.934;2024-02-21T08:18:26;7.50;99.90
15450;DHT22;7826;49.784;9.934;2024-02-21T08:20:53;7.60;99.90
15450;DHT22;7826;49.784;9.934;2024-02-21T08:23:19;7.60;99.90
15450;DHT22;7826;49.784;9.934;2024-02-21T08:25:45;7.70;99.90
15450;DHT22;7826;49.784;9.934;2024-02-21T08:28:12;7.80;99.90
15450;DHT22;7826;49.784;9.934;2024-02-21T08:30:39;7.90;99.90
15450;DHT22;7826;49.784;9.934;2024-02-21T08:33:05;8.00;99.90
15450;DHT22;7826;49.784;9.934;2024-02-21T08:35:31;8.00;99.90
15450;DHT22;7826;49.784;9.934;2024-02-21T08:37:57;8.10;99.90
15450;DHT22;7826;49.784;9.934;2024-02-21T08:40:23;8.20;99.90
15450;DHT22;7826;49.784;9.934;2024-02-21T08:42:51;8.20;99.90
15450;DHT22;7826;49.784;9.934;2024-02-21T08:45:17;8.30;99.90
15450;DHT22;7826;49.784;9.934;2024-02-21T08:47:43;8.30;99.90
15450;DHT22;7826;49.784;9.934;2024-02-21T08:50:10;8.30;99.90
15450;DHT22;7826;49.784;9.934;2024-02-21T08:52:37;8.40;99.90
15450;DHT22;7826;49.784;9.934;2024-02-21T08:55:03;8.40;99.90
15450;DHT22;7826;49.784;9.934;2024-02-21T08:57:30;8.50;99.90
15450;DHT22;7826;49.784;9.934;2024-02-21T09:00:06;8.50;99.90
15450;DHT22;7826;49.784;9.934;2024-02-21T09:02:39;8.50;99.90
15450;DHT22;7826;49.784;9.934;2024-02-21T09:05:09;8.60;99.90
15450;DHT22;7826;49.784;9.934;2024-02-21T09:07:35;8.60;99.90
15450;DHT22;7826;49.784;9.934;2024-02-21T09:10:02;8.70;99.90
15450;DHT22;7826;49.784;9.934;2024-02-21T09:12:28;8.60;99.90
15450;DHT22;7826;49.784;9.934;2024-02-21T09:14:56;8.70;99.90
15450;DHT22;7826;49.784;9.934;2024-02-21T09:17:24;8.70;99.90
15450;DHT22;7826;49.784;9.934;2024-02-21T09:19:51;8.70;99.90
15450;DHT22;7826;49.784;9.934;2024-02-21T09:22:17;8.80;99.90
15450;DHT22;7826;49.784;9.934;2024-02-21T09:24:43;8.90;99.90
15450;DHT22;7826;49.784;9.934;2024-02-21T09:27:10;8.90;99.90
15450;DHT22;7826;49.784;9.934;2024-02-21T09:29:36;8.80;99.90
15450;DHT22;7826;49.784;9.934;2024-02-21T09:32:05;8.90;99.90
15450;DHT22;7826;49.784;9.934;2024-02-21T09:34:31;8.90;99.90
15450;DHT22;7826;49.784;9.934;2024-02-21T09:36:58;9.00;99.90
15450;DHT22;7826;49.784;9.934;2024-02-21T09:39:24;9.00;99.90
15450;DHT22;7826;49.784;9.934;2024-02-21T09:41:53;9.00;99.90
15450;DHT22;7826;49.784;9.934;2024-02-21T09:44:22;9.10;99.90
15450;DHT22;7826;49.784;9.934;2024-02-21T09:47:03;9.10;99.90
15450;DHT22;7826;49.784;9.934;2024-02-21T09:49:32;9.10;99.90
15450;DHT22;7826;49.784;9.934;2024-02-21T09:52:01;9.10;99.90
15450;DHT22;7826;49.784;9.934;2024-02-21T09:54:29;9.20;99.90
15450;DHT22;7826;49.784;9.934;2024-02-21T09:56:59;9.20;99.90
15450;DHT22;7826;49.784;9.934;2024-02-21T09:59:27;9.20;99.90
15450;DHT22;7826;49.784;9.934;2024-02-21T10:01:54;9.30;99.90
15450;DHT22;7826;49.784;9.934;2024-02-21T10:04:21;9.40;99.90
15450;DHT22;7826;49.784;9.934;2024-02-21T10:06:47;9.40;99.90
15450;DHT22;7826;49.784;9.934;2024-02-21T10:09:24;9.40;99.90
15450;DHT22;7826;49.784;9.934;2024-02-21T10:11:51;9.40;99.90
15450;DHT22;7826;49.784;9.934;2024-02-21T10:14:17;9.30;99.90
15450;DHT22;7826;49.784;9.934;2024-02-21T10:16:48;9.40;99.90
15450;DHT22;7826;49.784;9.934;2024-02-21T10:19:19;9.40;99.90
15450;DHT22;7826;49.784;9.934;2024-02-21T10:22:06;9.40;99.90
15450;DHT22;7826;49.784;9.934;2024-02-21T10:24:37;9.40;99.90
15450;DHT22;7826;49.784;9.934;2024-02-21T10:27:08;9.30;99.90
15450;DHT22;7826;49.784;9.934;2024-02-21T10:29:40;9.40;99.90
15450;DHT22;7826;49.784;9.934;2024-02-21T10:32:08;9.40;99.90
15450;DHT22;7826;49.784;9.934;2024-02-21T10:34:35;9.30;99.90
15450;DHT22;7826;49.784;9.934;2024-02-21T10:37:07;9.50;99.90
15450;DHT22;7826;49.784;9.934;2024-02-21T10:39:36;9.60;99.90
15450;DHT22;7826;49.784;9.934;2024-02-21T10:42:05;9.70;99.90
15450;DHT22;7826;49.784;9.934;2024-02-21T10:44:33;9.70;99.90
15450;DHT22;7826;49.784;9.934;2024-02-21T10:46:59;9.80;99.90
15450;DHT22;7826;49.784;9.934;2024-02-21T10:49:30;9.80;99.90
15450;DHT22;7826;49.784;9.934;2024-02-21T10:52:13;9.80;99.90
15450;DHT22;7826;49.784;9.934;2024-02-21T10:54:45;9.90;99.90
15450;DHT22;7826;49.784;9.934;2024-02-21T10:57:16;10.00;99.90
15450;DHT22;7826;49.784;9.934;2024-02-21T10:59:45;10.00;99.90
15450;DHT22;7826;49.784;9.934;2024-02-21T11:02:13;10.10;99.90
15450;DHT22;7826;49.784;9.934;2024-02-21T11:04:40;10.00;99.90
15450;DHT22;7826;49.784;9.934;2024-02-21T11:07:07;10.20;99.90
15450;DHT22;7826;49.784;9.934;2024-02-21T11:09:34;10.30;99.90
15450;DHT22;7826;49.784;9.934;2024-02-21T11:12:07;10.30;99.90
15450;DHT22;7826;49.784;9.934;2024-02-21T11:14:34;10.30;99.90
15450;DHT22;7826;49.784;9.934;2024-02-21T11:17:18;10.30;99.90
15450;DHT22;7826;49.784;9.934;2024-02-21T11:19:44;10.30;99.90
15450;DHT22;7826;49.784;9.934;2024-02-21T11:22:18;10.30;99.90
15450;DHT22;7826;49.784;9.934;2024-02-21T11:24:44;10.40;99.90
15450;DHT22;7826;49.784;9.934;2024-02-21T11:27:18;10.40;99.90
15450;DHT22;7826;49.784;9.934;2024-02-21T11:29:48;10.50;99.90
15450;DHT22;7826;49.784;9.934;2024-02-21T11:32:18;10.80;99.90
15450;DHT22;7826;49.784;9.934;2024-02-21T11:35:02;11.10;99.90
15450;DHT22;7826;49.784;9.934;2024-02-21T11:37:30;11.30;99.90
15450;DHT22;7826;49.784;9.934;2024-02-21T11:39:59;11.20;99.90
15450;DHT22;7826;49.784;9.934;2024-02-21T11:42:27;11.30;99.90
15450;DHT22;7826;49.784;9.934;2024-02-21T11:44:53;11.40;99.90
15450;DHT22;7826;49.784;9.934;2024-02-21T11:47:23;11.50;99.90
15450;DHT22;7826;49.784;9.934;2024-02-21T11:49:50;11.70;99.90
15450;DHT22;7826;49.784;9.934;2024-02-21T11:52:25;11.80;99.90
15450;DHT22;7826;49.784;9.934;2024-02-21T11:54:51;12.00;99.90
15450;DHT22;7826;49.784;9.934;2024-02-21T11:57:23;12.20;99.90
15450;DHT22;7826;49.784;9.934;2024-02-21T11:59:51;12.20;99.90
15450;DHT22;7826;49.784;9.934;2024-02-21T12:02:18;11.90;99.90
15450;DHT22;7826;49.784;9.934;2024-02-21T12:04:44;12.30;99.90
15450;DHT22;7826;49.784;9.934;2024-02-21T12:07:11;12.00;99.90
15450;DHT22;7826;49.784;9.934;2024-02-21T12:09:37;12.00;99.90
15450;DHT22;7826;49.784;9.934;2024-02-21T12:12:05;11.90;99.90
15450;DHT22;7826;49.784;9.934;2024-02-21T12:14:35;11.60;99.90
15450;DHT22;7826;49.784;9.934;2024-02-21T12:17:02;11.60;99.90
15450;DHT22;7826;49.784;9.934;2024-02-21T12:19:32;11.70;99.90
15450;DHT22;7826;49.784;9.934;2024-02-21T12:21:59;12.50;99.90
15450;DHT22;7826;49.784;9.934;2024-02-21T12:24:27;12.20;99.90
15450;DHT22;7826;49.784;9.934;2024-02-21T12:26:54;12.10;99.90
15450;DHT22;7826;49.784;9.934;2024-02-21T12:29:21;12.00;99.90
15450;DHT22;7826;49.784;9.934;2024-02-21T12:31:47;11.90;99.90
15450;DHT22;7826;49.784;9.934;2024-02-21T12:34:14;11.90;99.90
15450;DHT22;7826;49.784;9.934;2024-02-21T12:36:42;12.50;99.90
15450;DHT22;7826;49.784;9.934;2024-02-21T12:39:12;13.00;99.90
15450;DHT22;7826;49.784;9.934;2024-02-21T12:41:39;13.30;99.90
15450;DHT22;7826;49.784;9.934;2024-02-21T12:44:07;13.00;99.90
15450;DHT22;7826;49.784;9.934;2024-02-21T12:46:34;12.90;99.90
15450;DHT22;7826;49.784;9.934;2024-02-21T12:49:01;12.50;99.90
15450;DHT22;7826;49.784;9.934;2024-02-21T12:51:32;12.60;99.90
15450;DHT22;7826;49.784;9.934;2024-02-21T12:53:58;13.50;99.90
15450;DHT22;7826;49.784;9.934;2024-02-21T12:56:25;13.40;99.90
15450;DHT22;7826;49.784;9.934;2024-02-21T12:58:55;13.00;99.90
15450;DHT22;7826;49.784;9.934;2024-02-21T13:01:22;13.10;99.90
15450;DHT22;7826;49.784;9.934;2024-02-21T13:03:48;12.90;99.90
15450;DHT22;7826;49.784;9.934;2024-02-21T13:06:14;13.30;99.90
15450;DHT22;7826;49.784;9.934;2024-02-21T13:08:40;13.40;99.90
15450;DHT22;7826;49.784;9.934;2024-02-21T13:11:07;14.20;99.90
15450;DHT22;7826;49.784;9.934;2024-02-21T13:13:33;14.80;99.90
15450;DHT22;7826;49.784;9.934;2024-02-21T13:15:59;14.90;99.90
15450;DHT22;7826;49.784;9.934;2024-02-21T13:18:26;14.30;99.90
15450;DHT22;7826;49.784;9.934;2024-02-21T13:20:53;14.60;99.90
15450;DHT22;7826;49.784;9.934;2024-02-21T13:23:19;14.00;99.90
15450;DHT22;7826;49.784;9.934;2024-02-21T13:25:47;14.20;99.90
15450;DHT22;7826;49.784;9.934;2024-02-21T13:28:15;13.60;99.90
15450;DHT22;7826;49.784;9.934;2024-02-21T13:30:43;13.70;99.90
15450;DHT22;7826;49.784;9.934;2024-02-21T13:33:09;13.80;99.90
15450;DHT22;7826;49.784;9.934;2024-02-21T13:35:36;13.50;99.90
15450;DHT22;7826;49.784;9.934;2024-02-21T13:38:03;13.00;99.90
15450;DHT22;7826;49.784;9.934;2024-02-21T13:40:29;12.70;99.90
15450;DHT22;7826;49.784;9.934;2024-02-21T13:42:55;12.40;99.90
15450;DHT22;7826;49.784;9.934;2024-02-21T13:45:22;12.40;99.90
15450;DHT22;7826;49.784;9.934;2024-02-21T13:47:48;12.10;99.90
15450;DHT22;7826;49.784;9.934;2024-02-21T13:50:15;12.10;99.90
15450;DHT22;7826;49.784;9.934;2024-02-21T13:52:41;12.00;99.90
15450;DHT22;7826;49.784;9.934;2024-02-21T13:55:09;12.00;99.90
15450;DHT22;7826;49.784;9.934;2024-02-21T13:57:36;11.90;99.90
15450;DHT22;7826;49.784;9.934;2024-02-21T14:00:04;11.80;99.90
15450;DHT22;7826;49.784;9.934;2024-02-21T14:02:30;11.80;99.90
15450;DHT22;7826;49.784;9.934;2024-02-21T14:04:57;11.60;99.90
15450;DHT22;7826;49.784;9.934;2024-02-21T14:07:23;11.60;99.90
15450;DHT22;7826;49.784;9.934;2024-02-21T14:09:49;11.60;99.90
15450;DHT22;7826;49.784;9.934;2024-02-21T14:12:15;11.50;99.90
15450;DHT22;7826;49.784;9.934;2024-02-21T14:14:43;11.50;99.90
15450;DHT22;7826;49.784;9.934;2024-02-21T14:17:10;11.50;99.90
15450;DHT22;7826;49.784;9.934;2024-02-21T14:19:36;11.50;99.90
15450;DHT22;7826;49.784;9.934;2024-02-21T14:22:02;11.60;99.90
15450;DHT22;7826;49.784;9.934;2024-02-21T14:24:28;11.60;99.90
15450;DHT22;7826;49.784;9.934;2024-02-21T14:26:54;11.40;99.90
15450;DHT22;7826;49.784;9.934;2024-02-21T14:29:21;11.40;99.90
15450;DHT22;7826;49.784;9.934;2024-02-21T14:31:48;11.40;99.90
15450;DHT22;7826;49.784;9.934;2024-02-21T14:34:16;11.30;99.90
15450;DHT22;7826;49.784;9.934;2024-02-21T14:36:42;11.20;99.90
15450;DHT22;7826;49.784;9.934;2024-02-21T14:39:08;11.20;99.90
15450;DHT22;7826;49.784;9.934;2024-02-21T14:41:35;11.00;99.90
15450;DHT22;7826;49.784;9.934;2024-02-21T14:44:02;11.20;99.90
15450;DHT22;7826;49.784;9.934;2024-02-21T14:46:29;11.10;99.90
15450;DHT22;7826;49.784;9.934;2024-02-21T14:48:55;11.00;99.90
15450;DHT22;7826;49.784;9.934;2024-02-21T14:51:22;11.00;99.90
15450;DHT22;7826;49.784;9.934;2024-02-21T14:53:48;11.00;99.90
15450;DHT22;7826;49.784;9.934;2024-02-21T14:56:14;11.00;99.90
15450;DHT22;7826;49.784;9.934;2024-02-21T14:58:41;11.10;99.90
15450;DHT22;7826;49.784;9.934;2024-02-21T15:01:08;11.10;99.90
15450;DHT22;7826;49.784;9.934;2024-02-21T15:03:35;11.00;99.90
15450;DHT22;7826;49.784;9.934;2024-02-21T15:06:02;10.90;99.90
15450;DHT22;7826;49.784;9.934;2024-02-21T15:08:28;10.80;99.90
15450;DHT22;7826;49.784;9.934;2024-02-21T15:10:54;10.80;99.90
15450;DHT22;7826;49.784;9.934;2024-02-21T15:13:20;10.70;99.90
15450;DHT22;7826;49.784;9.934;2024-02-21T15:15:48;10.60;99.90
15450;DHT22;7826;49.784;9.934;2024-02-21T15:18:15;10.50;99.90
15450;DHT22;7826;49.784;9.934;2024-02-21T15:20:41;10.40;99.90
15450;DHT22;7826;49.784;9.934;2024-02-21T15:23:07;10.40;99.90
15450;DHT22;7826;49.784;9.934;2024-02-21T15:25:33;10.40;99.90
15450;DHT22;7826;49.784;9.934;2024-02-21T15:28:00;10.30;99.90
15450;DHT22;7826;49.784;9.934;2024-02-21T15:30:28;10.30;99.90
15450;DHT22;7826;49.784;9.934;2024-02-21T15:32:58;10.30;99.90
15450;DHT22;7826;49.784;9.934;2024-02-21T15:35:28;10.20;99.90
15450;DHT22;7826;49.784;9.934;2024-02-21T15:37:55;10.10;99.90
15450;DHT22;7826;49.784;9.934;2024-02-21T15:40:24;10.00;99.90
15450;DHT22;7826;49.784;9.934;2024-02-21T15:42:50;9.90;99.90
15450;DHT22;7826;49.784;9.934;2024-02-21T15:45:17;9.90;99.90
15450;DHT22;7826;49.784;9.934;2024-02-21T15:47:43;9.90;99.90
15450;DHT22;7826;49.784;9.934;2024-02-21T15:50:09;9.90;99.90
15450;DHT22;7826;49.784;9.934;2024-02-21T15:52:36;9.70;99.90
15450;DHT22;7826;49.784;9.934;2024-02-21T15:55:05;9.70;99.90
15450;DHT22;7826;49.784;9.934;2024-02-21T15:57:33;9.60;99.90
15450;DHT22;7826;49.784;9.934;2024-02-21T15:59:59;9.60;99.90
15450;DHT22;7826;49.784;9.934;2024-02-21T16:02:25;9.40;99.90